sensor_id;sensor_type;location;lat;lon;timestamp;noise_LAeq;noise_LA_min;noise_LA_max;noise_LA01;noise_LA95
42701;Laerm;28316;49.504;8.526;2023-04-24T00:00:57;39.03;36.69;41.82;;
42701;Laerm;28316;49.504;8.526;2023-04-24T00:03:24;38.98;36.91;43.68;;
42701;Laerm;28316;49.504;8.526;2023-04-24T00:05:50;38.94;36.45;40.80;;
42701;Laerm;28316;49.504;8.526;2023-04-24T00:08:17;38.96;36.20;41.30;;
42701;Laerm;28316;49.504;8.526;2023-04-24T00:10:42;38.96;36.20;40.71;;
42701;Laerm;28316;49.504;8.526;2023-04-24T00:13:08;38.94;36.20;40.80;;
42701;Laerm;28316;49.504;8.526;2023-04-24T00:15:34;39.00;36.69;40.80;;
42701;Laerm;28316;49.504;8.526;2023-04-24T00:18:00;39.10;36.91;41.30;;
42701;Laerm;28316;49.504;8.526;2023-04-24T00:20:27;39.13;37.12;40.71;;
42701;Laerm;28316;49.504;8.526;2023-04-24T00:22:58;39.19;36.91;41.30;;
42701;Laerm;28316;49.504;8.526;2023-04-24T00:25:23;39.33;37.32;41.30;;
42701;Laerm;28316;49.504;8.526;2023-04-24T00:27:49;39.42;37.32;41.41;;
42701;Laerm;28316;49.504;8.526;2023-04-24T00:30:15;39.42;37.32;40.98;;
42701;Laerm;28316;49.504;8.526;2023-04-24T00:32:41;39.49;37.52;41.75;;
42701;Laerm;28316;49.504;8.526;2023-04-24T00:35:07;39.55;37.52;42.35;;
42701;Laerm;28316;49.504;8.526;2023-04-24T00:37:33;39.58;37.52;41.22;;
42701;Laerm;28316;49.504;8.526;2023-04-24T00:39:59;39.68;37.52;45.01;;
42701;Laerm;28316;49.504;8.526;2023-04-24T00:42:25;39.69;37.70;43.14;;
42701;Laerm;28316;49.504;8.526;2023-04-24T00:44:51;39.78;37.32;44.35;;
42701;Laerm;28316;49.504;8.526;2023-04-24T00:47:17;39.74;37.70;41.38;;
42701;Laerm;28316;49.504;8.526;2023-04-24T00:49:44;39.66;37.52;41.22;;
42701;Laerm;28316;49.504;8.526;2023-04-24T00:52:10;39.61;37.70;41.14;;
42701;Laerm;28316;49.504;8.526;2023-04-24T00:54:36;39.78;37.87;46.87;;
42701;Laerm;28316;49.504;8.526;2023-04-24T00:57:05;39.58;37.52;42.47;;
42701;Laerm;28316;49.504;8.526;2023-04-24T00:59:31;39.53;37.52;41.30;;
42701;Laerm;28316;49.504;8.526;2023-04-24T01:01:58;39.51;37.52;41.22;;
42701;Laerm;28316;49.504;8.526;2023-04-24T01:04:24;39.51;37.52;43.14;;
42701;Laerm;28316;49.504;8.526;2023-04-24T01:06:52;39.46;37.32;41.30;;
42701;Laerm;28316;49.504;8.526;2023-04-24T01:09:18;39.42;37.32;41.22;;
42701;Laerm;28316;49.504;8.526;2023-04-24T01:11:44;39.38;37.12;42.13;;
42701;Laerm;28316;49.504;8.526;2023-04-24T01:14:10;39.25;37.32;41.46;;
42701;Laerm;28316;49.504;8.526;2023-04-24T01:16:36;39.17;36.91;43.09;;
42701;Laerm;28316;49.504;8.526;2023-04-24T01:19:05;39.22;37.12;41.96;;
42701;Laerm;28316;49.504;8.526;2023-04-24T01:21:36;39.18;36.91;40.89;;
42701;Laerm;28316;49.504;8.526;2023-04-24T01:24:04;39.18;37.12;41.06;;
42701;Laerm;28316;49.504;8.526;2023-04-24T01:26:31;39.23;36.91;40.98;;
42701;Laerm;28316;49.504;8.526;2023-04-24T01:28:57;39.23;37.12;43.04;;
42701;Laerm;28316;49.504;8.526;2023-04-24T01:31:23;39.16;36.69;41.26;;
42701;Laerm;28316;49.504;8.526;2023-04-24T01:33:50;39.14;37.12;40.89;;
42701;Laerm;28316;49.504;8.526;2023-04-24T01:36:16;39.11;37.12;40.98;;
42701;Laerm;28316;49.504;8.526;2023-04-24T01:38:42;39.16;36.91;41.06;;
42701;Laerm;28316;49.504;8.526;2023-04-24T01:41:08;39.22;36.69;41.06;;
42701;Laerm;28316;49.504;8.526;2023-04-24T01:43:33;39.32;37.32;41.89;;
42701;Laerm;28316;49.504;8.526;2023-04-24T01:45:59;39.27;37.12;40.98;;
42701;Laerm;28316;49.504;8.526;2023-04-24T01:48:25;39.18;37.12;41.14;;
42701;Laerm;28316;49.504;8.526;2023-04-24T01:50:51;39.14;37.12;40.89;;
42701;Laerm;28316;49.504;8.526;2023-04-24T01:53:17;39.15;36.45;41.06;;
42701;Laerm;28316;49.504;8.526;2023-04-24T01:55:43;39.14;36.91;40.98;;
42701;Laerm;28316;49.504;8.526;2023-04-24T01:58:09;39.14;36.69;41.14;;
42701;Laerm;28316;49.504;8.526;2023-04-24T02:00:35;39.19;37.12;40.98;;
42701;Laerm;28316;49.504;8.526;2023-04-24T02:03:00;39.13;36.91;40.89;;
42701;Laerm;28316;49.504;8.526;2023-04-24T02:05:28;39.06;36.69;40.80;;
42701;Laerm;28316;49.504;8.526;2023-04-24T02:07:53;38.97;36.45;41.22;;
42701;Laerm;28316;49.504;8.526;2023-04-24T02:10:19;38.92;36.20;40.80;;
42701;Laerm;28316;49.504;8.526;2023-04-24T02:12:45;38.92;36.45;40.80;;
42701;Laerm;28316;49.504;8.526;2023-04-24T02:15:11;38.85;36.91;40.62;;
42701;Laerm;28316;49.504;8.526;2023-04-24T02:17:38;38.87;36.69;40.89;;
42701;Laerm;28316;49.504;8.526;2023-04-24T02:20:06;38.91;35.66;40.89;;
42701;Laerm;28316;49.504;8.526;2023-04-24T02:22:32;38.92;36.91;40.80;;
42701;Laerm;28316;49.504;8.526;2023-04-24T02:24:57;38.98;36.69;40.71;;
42701;Laerm;28316;49.504;8.526;2023-04-24T02:27:23;39.04;36.20;40.98;;
42701;Laerm;28316;49.504;8.526;2023-04-24T02:29:49;39.16;36.69;40.98;;
42701;Laerm;28316;49.504;8.526;2023-04-24T02:32:14;39.33;37.32;40.98;;
42701;Laerm;28316;49.504;8.526;2023-04-24T02:34:41;39.45;37.52;41.30;;
42701;Laerm;28316;49.504;8.526;2023-04-24T02:37:06;39.52;37.52;41.53;;
42701;Laerm;28316;49.504;8.526;2023-04-24T02:39:32;39.45;37.32;41.14;;
42701;Laerm;28316;49.504;8.526;2023-04-24T02:41:58;39.29;37.32;40.80;;
42701;Laerm;28316;49.504;8.526;2023-04-24T02:44:23;39.04;36.69;41.06;;
42701;Laerm;28316;49.504;8.526;2023-04-24T02:46:49;38.68;36.45;40.71;;
42701;Laerm;28316;49.504;8.526;2023-04-24T02:49:15;38.35;33.44;66.10;;
42701;Laerm;28316;49.504;8.526;2023-04-24T02:51:41;37.32;32.93;58.04;;
42701;Laerm;28316;49.504;8.526;2023-04-24T02:54:08;37.06;30.89;47.20;;
42701;Laerm;28316;49.504;8.526;2023-04-24T02:56:35;41.67;31.68;75.40;;
42701;Laerm;28316;49.504;8.526;2023-04-24T02:59:01;37.15;31.68;39.70;;
42701;Laerm;28316;49.504;8.526;2023-04-24T03:01:27;37.04;31.68;56.10;;
42701;Laerm;28316;49.504;8.526;2023-04-24T03:03:52;36.73;30.54;47.72;;
42701;Laerm;28316;49.504;8.526;2023-04-24T03:06:18;36.48;30.89;39.21;;
42701;Laerm;28316;49.504;8.526;2023-04-24T03:08:44;36.40;29.92;53.26;;
42701;Laerm;28316;49.504;8.526;2023-04-24T03:11:09;36.30;26.91;39.34;;
42701;Laerm;28316;49.504;8.526;2023-04-24T03:13:35;36.46;26.56;39.46;;
42701;Laerm;28316;49.504;8.526;2023-04-24T03:16:01;37.10;28.67;39.70;;
42701;Laerm;28316;49.504;8.526;2023-04-24T03:18:26;37.71;31.68;40.13;;
42701;Laerm;28316;49.504;8.526;2023-04-24T03:20:52;37.42;29.92;39.92;;
42701;Laerm;28316;49.504;8.526;2023-04-24T03:23:18;36.53;29.92;39.21;;
42701;Laerm;28316;49.504;8.526;2023-04-24T03:25:44;36.76;29.92;39.34;;
42701;Laerm;28316;49.504;8.526;2023-04-24T03:28:10;37.32;26.91;39.81;;
42701;Laerm;28316;49.504;8.526;2023-04-24T03:30:36;38.48;35.04;40.23;;
42701;Laerm;28316;49.504;8.526;2023-04-24T03:33:02;38.90;35.59;60.17;;
42701;Laerm;28316;49.504;8.526;2023-04-24T03:35:27;38.97;36.20;40.33;;
42701;Laerm;28316;49.504;8.526;2023-04-24T03:37:53;38.96;34.31;40.62;;
42701;Laerm;28316;49.504;8.526;2023-04-24T03:40:19;36.99;28.67;39.46;;
42701;Laerm;28316;49.504;8.526;2023-04-24T03:42:45;36.01;26.91;39.08;;
42701;Laerm;28316;49.504;8.526;2023-04-24T03:45:10;36.01;28.67;47.84;;
42701;Laerm;28316;49.504;8.526;2023-04-24T03:47:36;35.87;26.91;39.08;;
42701;Laerm;28316;49.504;8.526;2023-04-24T03:50:02;35.92;28.67;39.34;;
42701;Laerm;28316;49.504;8.526;2023-04-24T03:52:27;35.90;29.92;39.70;;
42701;Laerm;28316;49.504;8.526;2023-04-24T03:54:53;35.84;26.91;39.08;;
42701;Laerm;28316;49.504;8.526;2023-04-24T03:57:19;35.85;26.91;39.46;;
42701;Laerm;28316;49.504;8.526;2023-04-24T03:59:45;35.80;26.91;38.95;;
42701;Laerm;28316;49.504;8.526;2023-04-24T04:02:11;36.85;29.92;39.70;;
42701;Laerm;28316;49.504;8.526;2023-04-24T04:04:36;37.12;23.90;39.92;;
42701;Laerm;28316;49.504;8.526;2023-04-24T04:07:02;35.97;26.91;39.08;;
42701;Laerm;28316;49.504;8.526;2023-04-24T04:09:28;36.18;23.90;39.21;;
42701;Laerm;28316;49.504;8.526;2023-04-24T04:11:54;36.45;30.89;39.34;;
42701;Laerm;28316;49.504;8.526;2023-04-24T04:14:21;37.15;32.35;39.70;;
42701;Laerm;28316;49.504;8.526;2023-04-24T04:16:47;37.57;34.69;39.92;;
42701;Laerm;28316;49.504;8.526;2023-04-24T04:19:13;37.81;34.69;40.43;;
42701;Laerm;28316;49.504;8.526;2023-04-24T04:21:38;37.95;35.04;40.33;;
42701;Laerm;28316;49.504;8.526;2023-04-24T04:24:04;38.00;35.36;40.33;;
42701;Laerm;28316;49.504;8.526;2023-04-24T04:26:31;38.15;35.66;40.53;;
42701;Laerm;28316;49.504;8.526;2023-04-24T04:28:59;38.16;35.36;40.43;;
42701;Laerm;28316;49.504;8.526;2023-04-24T04:31:26;38.19;35.66;40.27;;
42701;Laerm;28316;49.504;8.526;2023-04-24T04:33:51;38.38;35.66;40.43;;
42701;Laerm;28316;49.504;8.526;2023-04-24T04:36:17;38.45;35.94;40.62;;
42701;Laerm;28316;49.504;8.526;2023-04-24T04:38:43;38.43;36.10;40.53;;
42701;Laerm;28316;49.504;8.526;2023-04-24T04:41:10;38.42;35.94;40.43;;
42701;Laerm;28316;49.504;8.526;2023-04-24T04:43:36;38.47;35.66;40.33;;
42701;Laerm;28316;49.504;8.526;2023-04-24T04:46:03;38.52;35.94;40.43;;
42701;Laerm;28316;49.504;8.526;2023-04-24T04:48:29;38.58;36.20;40.43;;
42701;Laerm;28316;49.504;8.526;2023-04-24T04:50:57;38.58;36.20;40.62;;
42701;Laerm;28316;49.504;8.526;2023-04-24T04:53:23;38.64;36.20;40.53;;
42701;Laerm;28316;49.504;8.526;2023-04-24T04:55:49;38.65;35.66;40.98;;
42701;Laerm;28316;49.504;8.526;2023-04-24T04:58:15;38.54;35.94;40.62;;
42701;Laerm;28316;49.504;8.526;2023-04-24T05:00:41;38.49;35.94;40.98;;
42701;Laerm;28316;49.504;8.526;2023-04-24T05:03:07;38.53;35.94;40.80;;
42701;Laerm;28316;49.504;8.526;2023-04-24T05:05:32;38.37;36.20;40.80;;
42701;Laerm;28316;49.504;8.526;2023-04-24T05:07:58;38.58;35.66;40.43;;
42701;Laerm;28316;49.504;8.526;2023-04-24T05:10:24;38.76;35.66;40.98;;
42701;Laerm;28316;49.504;8.526;2023-04-24T05:12:50;38.75;36.69;40.62;;
42701;Laerm;28316;49.504;8.526;2023-04-24T05:15:15;38.78;36.45;40.71;;
42701;Laerm;28316;49.504;8.526;2023-04-24T05:17:41;39.06;36.45;41.06;;
42701;Laerm;28316;49.504;8.526;2023-04-24T05:20:07;39.17;37.12;40.80;;
42701;Laerm;28316;49.504;8.526;2023-04-24T05:22:34;39.35;37.32;41.06;;
42701;Laerm;28316;49.504;8.526;2023-04-24T05:24:59;39.63;37.70;41.22;;
42701;Laerm;28316;49.504;8.526;2023-04-24T05:27:25;39.82;38.05;41.30;;
42701;Laerm;28316;49.504;8.526;2023-04-24T05:29:51;39.91;38.21;41.82;;
42701;Laerm;28316;49.504;8.526;2023-04-24T05:32:17;40.00;38.05;41.68;;
42701;Laerm;28316;49.504;8.526;2023-04-24T05:34:42;39.99;38.21;41.48;;
42701;Laerm;28316;49.504;8.526;2023-04-24T05:37:08;39.85;38.05;41.68;;
42701;Laerm;28316;49.504;8.526;2023-04-24T05:39:36;39.64;37.70;41.22;;
42701;Laerm;28316;49.504;8.526;2023-04-24T05:42:02;39.60;37.52;41.38;;
42701;Laerm;28316;49.504;8.526;2023-04-24T05:44:30;39.52;37.70;41.06;;
42701;Laerm;28316;49.504;8.526;2023-04-24T05:46:56;39.74;37.32;41.38;;
42701;Laerm;28316;49.504;8.526;2023-04-24T05:49:22;40.03;38.05;41.46;;
42701;Laerm;28316;49.504;8.526;2023-04-24T05:51:48;40.41;38.81;42.16;;
42701;Laerm;28316;49.504;8.526;2023-04-24T05:54:13;40.80;39.34;44.07;;
42701;Laerm;28316;49.504;8.526;2023-04-24T05:56:40;40.73;39.08;42.93;;
42701;Laerm;28316;49.504;8.526;2023-04-24T05:59:06;40.60;39.08;41.89;;
42701;Laerm;28316;49.504;8.526;2023-04-24T06:01:33;40.61;38.95;42.03;;
42701;Laerm;28316;49.504;8.526;2023-04-24T06:03:58;40.69;39.21;42.09;;
42701;Laerm;28316;49.504;8.526;2023-04-24T06:06:24;40.76;39.21;42.42;;
42701;Laerm;28316;49.504;8.526;2023-04-24T06:08:51;40.63;39.08;42.16;;
42701;Laerm;28316;49.504;8.526;2023-04-24T06:11:17;40.78;39.08;43.44;;
42701;Laerm;28316;49.504;8.526;2023-04-24T06:13:42;40.82;39.21;44.43;;
42701;Laerm;28316;49.504;8.526;2023-04-24T06:16:08;40.82;39.21;42.65;;
42701;Laerm;28316;49.504;8.526;2023-04-24T06:18:34;40.98;39.46;45.36;;
42701;Laerm;28316;49.504;8.526;2023-04-24T06:21:00;40.80;39.34;42.22;;
42701;Laerm;28316;49.504;8.526;2023-04-24T06:23:26;40.86;39.08;42.35;;
42701;Laerm;28316;49.504;8.526;2023-04-24T06:25:52;40.89;39.21;42.29;;
42701;Laerm;28316;49.504;8.526;2023-04-24T06:28:18;40.84;39.21;42.53;;
42701;Laerm;28316;49.504;8.526;2023-04-24T06:30:43;40.97;39.34;47.26;;
42701;Laerm;28316;49.504;8.526;2023-04-24T06:33:09;40.82;39.46;42.71;;
42701;Laerm;28316;49.504;8.526;2023-04-24T06:35:36;40.71;38.95;43.63;;
42701;Laerm;28316;49.504;8.526;2023-04-24T06:38:03;40.51;38.81;43.09;;
42701;Laerm;28316;49.504;8.526;2023-04-24T06:40:29;40.12;37.52;43.86;;
42701;Laerm;28316;49.504;8.526;2023-04-24T06:42:55;39.08;36.45;42.47;;
42701;Laerm;28316;49.504;8.526;2023-04-24T06:45:23;38.26;35.04;41.53;;
42701;Laerm;28316;49.504;8.526;2023-04-24T06:47:49;37.10;32.35;56.95;;
42701;Laerm;28316;49.504;8.526;2023-04-24T06:50:14;36.61;31.68;50.16;;
42701;Laerm;28316;49.504;8.526;2023-04-24T06:52:40;40.53;30.89;74.59;;
42701;Laerm;28316;49.504;8.526;2023-04-24T06:55:07;37.59;30.89;67.77;;
42701;Laerm;28316;49.504;8.526;2023-04-24T06:57:33;36.30;26.91;46.33;;
42701;Laerm;28316;49.504;8.526;2023-04-24T06:59:58;36.22;28.67;39.70;;
42701;Laerm;28316;49.504;8.526;2023-04-24T07:02:25;36.64;30.89;39.34;;
42701;Laerm;28316;49.504;8.526;2023-04-24T07:04:51;36.33;29.92;39.70;;
42701;Laerm;28316;49.504;8.526;2023-04-24T07:07:16;36.75;31.68;39.81;;
42701;Laerm;28316;49.504;8.526;2023-04-24T07:09:42;37.79;34.31;40.08;;
42701;Laerm;28316;49.504;8.526;2023-04-24T07:12:08;38.40;35.66;40.53;;
42701;Laerm;28316;49.504;8.526;2023-04-24T07:14:36;38.46;35.66;40.62;;
42701;Laerm;28316;49.504;8.526;2023-04-24T07:17:04;38.34;35.66;40.53;;
42701;Laerm;28316;49.504;8.526;2023-04-24T07:19:30;38.56;35.66;40.71;;
42701;Laerm;28316;49.504;8.526;2023-04-24T07:21:56;38.96;36.69;41.53;;
42701;Laerm;28316;49.504;8.526;2023-04-24T07:24:24;39.39;36.91;41.46;;
42701;Laerm;28316;49.504;8.526;2023-04-24T07:26:51;40.12;38.37;44.19;;
42701;Laerm;28316;49.504;8.526;2023-04-24T07:29:18;40.44;38.67;42.82;;
42701;Laerm;28316;49.504;8.526;2023-04-24T07:31:45;40.83;39.21;49.79;;
42701;Laerm;28316;49.504;8.526;2023-04-24T07:34:11;40.75;39.08;48.03;;
42701;Laerm;28316;49.504;8.526;2023-04-24T07:36:37;40.77;38.81;44.94;;
42701;Laerm;28316;49.504;8.526;2023-04-24T07:39:05;40.82;39.46;43.34;;
42701;Laerm;28316;49.504;8.526;2023-04-24T07:41:31;40.90;39.46;45.94;;
42701;Laerm;28316;49.504;8.526;2023-04-24T07:43:58;41.22;39.46;52.44;;
42701;Laerm;28316;49.504;8.526;2023-04-24T07:46:24;40.85;39.34;42.98;;
42701;Laerm;28316;49.504;8.526;2023-04-24T07:48:50;40.80;39.08;42.16;;
42701;Laerm;28316;49.504;8.526;2023-04-24T07:51:16;40.69;39.08;41.89;;
42701;Laerm;28316;49.504;8.526;2023-04-24T07:53:43;40.83;39.34;44.51;;
42701;Laerm;28316;49.504;8.526;2023-04-24T07:56:09;41.10;39.46;47.76;;
42701;Laerm;28316;49.504;8.526;2023-04-24T07:58:35;41.34;39.92;48.43;;
42701;Laerm;28316;49.504;8.526;2023-04-24T08:01:01;41.29;39.81;46.43;;
42701;Laerm;28316;49.504;8.526;2023-04-24T08:03:27;41.75;39.92;52.06;;
42701;Laerm;28316;49.504;8.526;2023-04-24T08:05:52;41.65;39.92;44.58;;
42701;Laerm;28316;49.504;8.526;2023-04-24T08:08:21;41.79;40.33;50.02;;
42701;Laerm;28316;49.504;8.526;2023-04-24T08:10:48;42.67;40.62;56.31;;
42701;Laerm;28316;49.504;8.526;2023-04-24T08:13:13;42.51;40.62;55.70;;
42701;Laerm;28316;49.504;8.526;2023-04-24T08:15:39;41.98;40.23;51.90;;
42701;Laerm;28316;49.504;8.526;2023-04-24T08:18:05;41.78;40.53;47.52;;
42701;Laerm;28316;49.504;8.526;2023-04-24T08:20:31;42.03;40.33;50.75;;
42701;Laerm;28316;49.504;8.526;2023-04-24T08:22:57;42.00;40.43;50.92;;
42701;Laerm;28316;49.504;8.526;2023-04-24T08:25:22;42.14;40.33;56.64;;
42701;Laerm;28316;49.504;8.526;2023-04-24T08:27:50;41.95;40.43;48.08;;
42701;Laerm;28316;49.504;8.526;2023-04-24T08:30:17;44.19;40.43;63.76;;
42701;Laerm;28316;49.504;8.526;2023-04-24T08:32:43;43.40;40.53;61.73;;
42701;Laerm;28316;49.504;8.526;2023-04-24T08:35:09;44.36;40.43;62.85;;
42701;Laerm;28316;49.504;8.526;2023-04-24T08:37:35;43.25;40.53;60.79;;
42701;Laerm;28316;49.504;8.526;2023-04-24T08:40:06;43.15;40.43;58.06;;
42701;Laerm;28316;49.504;8.526;2023-04-24T08:42:33;42.99;40.53;60.30;;
42701;Laerm;28316;49.504;8.526;2023-04-24T08:45:01;44.26;40.43;61.54;;
42701;Laerm;28316;49.504;8.526;2023-04-24T08:47:29;46.58;40.53;66.23;;
42701;Laerm;28316;49.504;8.526;2023-04-24T08:49:56;43.25;40.43;59.21;;
42701;Laerm;28316;49.504;8.526;2023-04-24T08:52:23;42.30;40.33;56.58;;
42701;Laerm;28316;49.504;8.526;2023-04-24T08:54:49;42.87;40.03;64.11;;
42701;Laerm;28316;49.504;8.526;2023-04-24T08:57:15;47.34;40.23;68.68;;
42701;Laerm;28316;49.504;8.526;2023-04-24T08:59:42;45.14;40.13;64.46;;
42701;Laerm;28316;49.504;8.526;2023-04-24T09:02:10;41.97;40.53;49.47;;
42701;Laerm;28316;49.504;8.526;2023-04-24T09:04:37;43.47;40.13;58.12;;
42701;Laerm;28316;49.504;8.526;2023-04-24T09:07:03;42.30;40.23;58.90;;
42701;Laerm;28316;49.504;8.526;2023-04-24T09:09:32;42.59;40.23;54.96;;
42701;Laerm;28316;49.504;8.526;2023-04-24T09:11:58;42.14;40.13;52.00;;
42701;Laerm;28316;49.504;8.526;2023-04-24T09:14:26;42.07;40.33;54.72;;
42701;Laerm;28316;49.504;8.526;2023-04-24T09:16:53;42.26;40.53;56.03;;
42701;Laerm;28316;49.504;8.526;2023-04-24T09:19:19;42.44;40.43;54.51;;
42701;Laerm;28316;49.504;8.526;2023-04-24T09:21:47;43.83;40.53;59.25;;
42701;Laerm;28316;49.504;8.526;2023-04-24T09:24:20;43.75;40.53;60.08;;
42701;Laerm;28316;49.504;8.526;2023-04-24T09:26:49;43.19;40.53;60.79;;
42701;Laerm;28316;49.504;8.526;2023-04-24T09:29:22;44.06;40.63;65.53;;
42701;Laerm;28316;49.504;8.526;2023-04-24T09:31:48;42.30;40.03;56.25;;
42701;Laerm;28316;49.504;8.526;2023-04-24T09:34:14;42.31;40.33;54.36;;
42701;Laerm;28316;49.504;8.526;2023-04-24T09:36:42;44.46;40.03;62.31;;
42701;Laerm;28316;49.504;8.526;2023-04-24T09:39:13;42.06;40.13;51.97;;
42701;Laerm;28316;49.504;8.526;2023-04-24T09:41:48;45.51;40.43;67.18;;
42701;Laerm;28316;49.504;8.526;2023-04-24T09:44:20;44.72;40.23;66.56;;
42701;Laerm;28316;49.504;8.526;2023-04-24T09:46:57;43.87;40.43;60.46;;
42701;Laerm;28316;49.504;8.526;2023-04-24T09:49:26;43.84;40.33;65.23;;
42701;Laerm;28316;49.504;8.526;2023-04-24T09:52:09;44.49;40.23;64.87;;
42701;Laerm;28316;49.504;8.526;2023-04-24T09:54:35;44.15;40.53;62.53;;
42701;Laerm;28316;49.504;8.526;2023-04-24T09:57:07;45.08;40.62;62.70;;
42701;Laerm;28316;49.504;8.526;2023-04-24T09:59:33;45.63;40.13;65.65;;
42701;Laerm;28316;49.504;8.526;2023-04-24T10:02:00;45.32;40.33;63.90;;
42701;Laerm;28316;49.504;8.526;2023-04-24T10:04:28;44.14;40.33;63.68;;
42701;Laerm;28316;49.504;8.526;2023-04-24T10:06:56;43.74;40.23;60.49;;
42701;Laerm;28316;49.504;8.526;2023-04-24T10:09:26;43.58;39.81;61.18;;
42701;Laerm;28316;49.504;8.526;2023-04-24T10:11:54;42.92;39.92;58.46;;
42701;Laerm;28316;49.504;8.526;2023-04-24T10:14:24;45.40;39.34;67.15;;
42701;Laerm;28316;49.504;8.526;2023-04-24T10:16:53;42.67;39.92;62.02;;
42701;Laerm;28316;49.504;8.526;2023-04-24T10:19:19;45.16;39.70;63.99;;
42701;Laerm;28316;49.504;8.526;2023-04-24T10:21:45;43.91;40.33;65.98;;
42701;Laerm;28316;49.504;8.526;2023-04-24T10:24:19;42.86;40.33;58.27;;
42701;Laerm;28316;49.504;8.526;2023-04-24T10:26:47;51.16;40.43;76.60;;
42701;Laerm;28316;49.504;8.526;2023-04-24T10:29:17;43.37;40.13;59.06;;
42701;Laerm;28316;49.504;8.526;2023-04-24T10:31:43;48.05;39.92;71.95;;
42701;Laerm;28316;49.504;8.526;2023-04-24T10:34:11;42.49;39.21;56.50;;
42701;Laerm;28316;49.504;8.526;2023-04-24T10:37:02;45.96;38.52;68.60;;
42701;Laerm;28316;49.504;8.526;2023-04-24T10:39:27;42.78;38.52;59.45;;
42701;Laerm;28316;49.504;8.526;2023-04-24T10:41:54;50.39;38.21;84.92;;
42701;Laerm;28316;49.504;8.526;2023-04-24T10:44:22;45.69;38.52;65.54;;
42701;Laerm;28316;49.504;8.526;2023-04-24T10:46:54;47.79;38.52;68.74;;
42701;Laerm;28316;49.504;8.526;2023-04-24T10:49:31;45.33;38.52;67.39;;
42701;Laerm;28316;49.504;8.526;2023-04-24T10:52:04;44.83;38.81;66.59;;
42701;Laerm;28316;49.504;8.526;2023-04-24T10:54:45;46.93;39.08;67.45;;
42701;Laerm;28316;49.504;8.526;2023-04-24T11:00:10;42.80;39.21;62.96;;
42701;Laerm;28316;49.504;8.526;2023-04-24T11:02:39;43.17;40.13;58.80;;
42701;Laerm;28316;49.504;8.526;2023-04-24T11:05:06;43.22;40.13;61.80;;
42701;Laerm;28316;49.504;8.526;2023-04-24T11:10:46;44.10;40.53;63.33;;
42701;Laerm;28316;49.504;8.526;2023-04-24T11:13:22;42.66;40.33;59.60;;
42701;Laerm;28316;49.504;8.526;2023-04-24T11:18:51;42.92;39.92;60.38;;
42701;Laerm;28316;49.504;8.526;2023-04-24T11:21:21;42.94;40.13;57.59;;
42701;Laerm;28316;49.504;8.526;2023-04-24T11:23:47;43.10;40.23;58.47;;
42701;Laerm;28316;49.504;8.526;2023-04-24T11:26:19;43.74;40.43;60.15;;
42701;Laerm;28316;49.504;8.526;2023-04-24T11:28:51;43.52;40.33;58.53;;
42701;Laerm;28316;49.504;8.526;2023-04-24T11:31:38;46.98;40.23;69.77;;
42701;Laerm;28316;49.504;8.526;2023-04-24T11:34:12;45.08;39.92;67.69;;
42701;Laerm;28316;49.504;8.526;2023-04-24T11:36:42;49.95;39.70;67.66;;
42701;Laerm;28316;49.504;8.526;2023-04-24T11:39:08;44.57;39.46;67.67;;
42701;Laerm;28316;49.504;8.526;2023-04-24T11:41:34;45.50;39.70;65.85;;
42701;Laerm;28316;49.504;8.526;2023-04-24T11:44:01;45.39;39.21;65.82;;
42701;Laerm;28316;49.504;8.526;2023-04-24T11:46:31;48.12;39.08;71.13;;
42701;Laerm;28316;49.504;8.526;2023-04-24T11:48:58;45.18;39.34;64.53;;
42701;Laerm;28316;49.504;8.526;2023-04-24T11:51:26;46.81;39.58;66.76;;
42701;Laerm;28316;49.504;8.526;2023-04-24T11:53:54;42.54;39.58;56.44;;
42701;Laerm;28316;49.504;8.526;2023-04-24T11:56:24;43.54;39.81;60.17;;
42701;Laerm;28316;49.504;8.526;2023-04-24T11:58:53;42.01;40.13;53.66;;
42701;Laerm;28316;49.504;8.526;2023-04-24T12:01:20;42.46;40.53;59.65;;
42701;Laerm;28316;49.504;8.526;2023-04-24T12:03:50;45.03;40.23;63.68;;
42701;Laerm;28316;49.504;8.526;2023-04-24T12:06:24;42.82;40.23;58.73;;
42701;Laerm;28316;49.504;8.526;2023-04-24T12:08:52;42.53;40.03;59.99;;
42701;Laerm;28316;49.504;8.526;2023-04-24T12:11:20;43.67;39.92;61.15;;
42701;Laerm;28316;49.504;8.526;2023-04-24T12:13:46;45.99;38.95;63.25;;
42701;Laerm;28316;49.504;8.526;2023-04-24T12:16:12;43.56;38.95;61.24;;
42701;Laerm;28316;49.504;8.526;2023-04-24T12:18:43;47.78;38.21;83.00;;
42701;Laerm;28316;49.504;8.526;2023-04-24T12:21:19;41.70;37.88;60.50;;
42701;Laerm;28316;49.504;8.526;2023-04-24T12:23:46;46.83;38.05;65.42;;
42701;Laerm;28316;49.504;8.526;2023-04-24T12:26:19;43.22;37.70;65.33;;
42701;Laerm;28316;49.504;8.526;2023-04-24T12:28:48;41.43;37.12;54.68;;
42701;Laerm;28316;49.504;8.526;2023-04-24T12:31:15;45.88;38.87;65.66;;
42701;Laerm;28316;49.504;8.526;2023-04-24T12:33:41;42.28;38.81;60.45;;
42701;Laerm;28316;49.504;8.526;2023-04-24T12:36:10;42.10;38.81;57.07;;
42701;Laerm;28316;49.504;8.526;2023-04-24T12:38:38;43.39;38.81;63.94;;
42701;Laerm;28316;49.504;8.526;2023-04-24T12:41:09;41.47;39.08;57.57;;
42701;Laerm;28316;49.504;8.526;2023-04-24T12:43:36;43.32;38.95;61.30;;
42701;Laerm;28316;49.504;8.526;2023-04-24T12:46:02;44.05;39.08;60.42;;
42701;Laerm;28316;49.504;8.526;2023-04-24T12:48:29;42.87;38.95;65.82;;
42701;Laerm;28316;49.504;8.526;2023-04-24T12:50:57;41.02;38.95;46.13;;
42701;Laerm;28316;49.504;8.526;2023-04-24T12:53:22;42.75;38.95;61.10;;
42701;Laerm;28316;49.504;8.526;2023-04-24T12:55:48;42.41;38.81;59.46;;
42701;Laerm;28316;49.504;8.526;2023-04-24T12:58:21;47.67;38.67;71.52;;
42701;Laerm;28316;49.504;8.526;2023-04-24T13:00:48;46.33;38.67;64.40;;
42701;Laerm;28316;49.504;8.526;2023-04-24T13:03:14;46.14;38.52;67.49;;
42701;Laerm;28316;49.504;8.526;2023-04-24T13:05:42;44.48;38.21;68.73;;
42701;Laerm;28316;49.504;8.526;2023-04-24T13:08:08;42.61;37.32;62.50;;
42701;Laerm;28316;49.504;8.526;2023-04-24T13:10:34;43.35;38.21;59.41;;
42701;Laerm;28316;49.504;8.526;2023-04-24T13:13:00;42.39;38.21;59.06;;
42701;Laerm;28316;49.504;8.526;2023-04-24T13:15:26;44.98;38.52;63.37;;
42701;Laerm;28316;49.504;8.526;2023-04-24T13:17:52;41.48;38.81;56.34;;
42701;Laerm;28316;49.504;8.526;2023-04-24T13:20:18;41.60;38.81;57.23;;
42701;Laerm;28316;49.504;8.526;2023-04-24T13:22:44;41.27;38.52;50.33;;
42701;Laerm;28316;49.504;8.526;2023-04-24T13:25:09;41.88;38.95;59.73;;
42701;Laerm;28316;49.504;8.526;2023-04-24T13:27:38;42.60;38.95;65.38;;
42701;Laerm;28316;49.504;8.526;2023-04-24T13:30:04;43.29;38.81;57.80;;
42701;Laerm;28316;49.504;8.526;2023-04-24T13:32:30;44.73;37.70;64.75;;
42701;Laerm;28316;49.504;8.526;2023-04-24T13:34:56;41.99;37.88;59.85;;
42701;Laerm;28316;49.504;8.526;2023-04-24T13:37:22;42.16;37.88;60.77;;
42701;Laerm;28316;49.504;8.526;2023-04-24T13:39:48;44.73;37.70;63.84;;
42701;Laerm;28316;49.504;8.526;2023-04-24T13:42:14;43.57;37.52;64.66;;
42701;Laerm;28316;49.504;8.526;2023-04-24T13:44:40;42.50;38.05;62.84;;
42701;Laerm;28316;49.504;8.526;2023-04-24T13:47:05;41.42;37.88;55.06;;
42701;Laerm;28316;49.504;8.526;2023-04-24T13:49:31;43.25;37.12;64.48;;
42701;Laerm;28316;49.504;8.526;2023-04-24T13:51:57;44.62;37.52;67.19;;